Time;durP1;ratioP1;P1;durP2;ratioP2;P2;SDS_P1;SDS_P2;PMS_P1;PMS_P2;Temp;Humidity;BMP_temperature;BMP_pressure;BME280_temperature;BME280_humidity;BME280_pressure;Samples;Min_cycle;Max_cycle;Signal;HPM_P1;HPM_P2
2022/12/03 00:02:38;;;;;;;36.5;16.9;;;;;;;0.1;88.2;99570;;;;
2022/12/03 00:12:38;;;;;;;36.5;16.9;;;;;;;-0.1;88.4;99580;;;;
2022/12/03 00:22:38;;;;;;;36.5;16.9;;;;;;;0.1;88.2;99590;;;;
2022/12/03 00:32:38;;;;;;;38.8;19.2;;;;;;;0.2;88.1;99600;;;;
2022/12/03 00:42:38;;;;;;;38.8;19.2;;;;;;;0.3;87.9;99600;;;;
2022/12/03 00:53:38;;;;;;;38.8;19.2;;;;;;;0.3;87.8;99580;;;;
2022/12/03 01:04:38;;;;;;;28.6;16.1;;;;;;;0.1;88;99580;;;;
2022/12/03 01:14:38;;;;;;;28.6;16.1;;;;;;;0.1;88.6;99570;;;;
2022/12/03 01:24:38;;;;;;;28.6;16.1;;;;;;;-0.1;89;99570;;;;
2022/12/03 01:34:38;;;;;;;37.2;18.6;;;;;;;0;89.3;99570;;;;
2022/12/03 01:45:38;;;;;;;37.2;18.6;;;;;;;0;89.4;99570;;;;
2022/12/03 01:56:38;;;;;;;37.2;18.6;;;;;;;0.1;89.5;99570;;;;
2022/12/03 02:06:38;;;;;;;39.1;19.4;;;;;;;0.2;89.4;99570;;;;
2022/12/03 02:16:38;;;;;;;39.1;19.4;;;;;;;0.2;89.3;99570;;;;
2022/12/03 02:27:38;;;;;;;39.1;19.4;;;;;;;0.1;89.6;99570;;;;
2022/12/03 02:37:38;;;;;;;39.3;20.6;;;;;;;0.2;89.7;99570;;;;
2022/12/03 02:47:38;;;;;;;39.3;20.6;;;;;;;0.1;89.8;99570;;;;
2022/12/03 02:58:38;;;;;;;39.3;20.6;;;;;;;0.2;90.1;99570;;;;
2022/12/03 03:08:38;;;;;;;48.2;22.5;;;;;;;0.1;90.1;99570;;;;
2022/12/03 03:18:38;;;;;;;48.2;22.5;;;;;;;0.1;90.3;99560;;;;
2022/12/03 03:29:38;;;;;;;48.2;22.5;;;;;;;0;90.6;99540;;;;
2022/12/03 03:40:38;;;;;;;40.5;21.7;;;;;;;0;90.8;99550;;;;
2022/12/03 03:50:38;;;;;;;40.5;21.7;;;;;;;-0.1;90.9;99550;;;;
2022/12/03 04:01:38;;;;;;;40.5;21.7;;;;;;;0;90.9;99550;;;;
2022/12/03 04:13:10;;;;;;;48.4;22.2;;;;;;;0;90.8;99560;;;;
2022/12/03 04:23:38;;;;;;;48.4;22.2;;;;;;;0.2;90.7;99560;;;;
2022/12/03 04:35:42;;;;;;;44.3;21.5;;;;;;;0.3;90.6;99570;;;;
2022/12/03 04:44:38;;;;;;;44.3;21.5;;;;;;;0.2;90.4;99570;;;;
2022/12/03 04:54:38;;;;;;;44.3;21.5;;;;;;;0.2;90.4;99560;;;;
2022/12/03 05:05:38;;;;;;;43;19.1;;;;;;;0.2;90.4;99580;;;;
2022/12/03 05:16:38;;;;;;;43;19.1;;;;;;;0;90.2;99570;;;;
2022/12/03 05:26:38;;;;;;;43;19.1;;;;;;;0;90.2;99560;;;;
2022/12/03 05:36:38;;;;;;;32.1;18.8;;;;;;;0.1;90.2;99560;;;;
2022/12/03 05:47:38;;;;;;;32.1;18.8;;;;;;;0.2;90;99570;;;;
2022/12/03 05:58:38;;;;;;;32.1;18.8;;;;;;;0.2;89.7;99560;;;;
2022/12/03 06:09:38;;;;;;;40;19.3;;;;;;;0.1;89.7;99570;;;;
2022/12/03 06:20:38;;;;;;;40;19.3;;;;;;;0.1;89.5;99570;;;;
2022/12/03 06:31:38;;;;;;;33.9;17.7;;;;;;;0;89.5;99560;;;;
2022/12/03 06:42:38;;;;;;;33.9;17.7;;;;;;;-0.3;90.2;99580;;;;
2022/12/03 06:53:38;;;;;;;33.9;17.7;;;;;;;0;90.1;99590;;;;
2022/12/03 07:03:38;;;;;;;37.1;18.8;;;;;;;-0.3;90.3;99590;;;;
2022/12/03 07:13:38;;;;;;;37.1;18.8;;;;;;;-0.2;90.2;99600;;;;
2022/12/03 07:24:38;;;;;;;37.1;18.8;;;;;;;0;89.9;99600;;;;
2022/12/03 07:34:38;;;;;;;32.8;16.1;;;;;;;0.2;89.7;99600;;;;
2022/12/03 07:44:38;;;;;;;32.8;16.1;;;;;;;0.5;89.4;99600;;;;
2022/12/03 07:55:38;;;;;;;32.8;16.1;;;;;;;0.6;88.6;99600;;;;
2022/12/03 08:05:38;;;;;;;37.9;18.8;;;;;;;0.4;88.1;99590;;;;
2022/12/03 08:15:38;;;;;;;37.9;18.8;;;;;;;0.4;87.9;99580;;;;
2022/12/03 08:25:38;;;;;;;37.9;18.8;;;;;;;0.4;88.4;99590;;;;
2022/12/03 08:35:38;;;;;;;43.3;23.4;;;;;;;0.4;88.4;99590;;;;
2022/12/03 08:46:38;;;;;;;43.3;23.4;;;;;;;0.7;87.9;99590;;;;
2022/12/03 08:56:38;;;;;;;43.3;23.4;;;;;;;1;87.5;99590;;;;
2022/12/03 09:07:38;;;;;;;42.8;23.1;;;;;;;1;86.8;99600;;;;
2022/12/03 09:17:38;;;;;;;42.8;23.1;;;;;;;1.1;86.8;99600;;;;
2022/12/03 09:27:38;;;;;;;42.8;23.1;;;;;;;1.2;86.9;99590;;;;
2022/12/03 09:37:38;;;;;;;51.5;25.7;;;;;;;1.2;86.6;99600;;;;
2022/12/03 09:47:38;;;;;;;51.5;25.7;;;;;;;1.3;86.5;99590;;;;
2022/12/03 09:58:38;;;;;;;51.5;25.7;;;;;;;1.1;86.5;99590;;;;
2022/12/03 10:08:38;;;;;;;48.4;27.3;;;;;;;1.4;86.2;99580;;;;
2022/12/03 10:18:38;;;;;;;48.4;27.3;;;;;;;1.2;86.1;99570;;;;
2022/12/03 10:29:38;;;;;;;48.4;27.3;;;;;;;1.5;86.1;99570;;;;
2022/12/03 10:39:38;;;;;;;51.4;30.7;;;;;;;1.2;86;99570;;;;
2022/12/03 10:50:38;;;;;;;51.4;30.7;;;;;;;1.5;86.4;99570;;;;
2022/12/03 11:00:38;;;;;;;53.4;31;;;;;;;1.4;86.4;99560;;;;
2022/12/03 11:11:38;;;;;;;53.4;31;;;;;;;1.6;86.2;99560;;;;
2022/12/03 11:21:38;;;;;;;53.4;31;;;;;;;1.4;86.5;99560;;;;
2022/12/03 11:32:38;;;;;;;59.7;30.4;;;;;;;1.5;86.4;99540;;;;
2022/12/03 11:42:38;;;;;;;59.7;30.4;;;;;;;1.2;86.9;99540;;;;
2022/12/03 11:53:38;;;;;;;59.7;30.4;;;;;;;1;88.2;99550;;;;
2022/12/03 12:04:41;;;;;;;61.8;27.4;;;;;;;1.3;88;99530;;;;
2022/12/03 12:15:38;;;;;;;61.8;27.4;;;;;;;1.1;88;99530;;;;
2022/12/03 12:26:38;;;;;;;61.8;27.4;;;;;;;1.1;88.3;99530;;;;
2022/12/03 12:36:38;;;;;;;57.3;28.2;;;;;;;1;88.9;99530;;;;
2022/12/03 12:47:38;;;;;;;57.3;28.2;;;;;;;1.4;88.5;99520;;;;
2022/12/03 12:58:38;;;;;;;57.3;28.2;;;;;;;1.2;88.5;99520;;;;
2022/12/03 13:08:38;;;;;;;52.3;28.4;;;;;;;1.3;88.4;99530;;;;
2022/12/03 13:19:38;;;;;;;52.3;28.4;;;;;;;1.3;88.6;99520;;;;
2022/12/03 13:29:38;;;;;;;52.3;28.4;;;;;;;1.3;88.5;99520;;;;
2022/12/03 13:39:38;;;;;;;59.3;27.2;;;;;;;1.2;88.8;99530;;;;
2022/12/03 13:50:38;;;;;;;59.3;27.2;;;;;;;1;89.8;99540;;;;
2022/12/03 14:01:38;;;;;;;51.7;27.4;;;;;;;0.9;90.1;99540;;;;
2022/12/03 14:12:42;;;;;;;51.7;27.4;;;;;;;1;90.4;99550;;;;
2022/12/03 14:22:40;;;;;;;51.7;27.4;;;;;;;1;90.3;99530;;;;
2022/12/03 14:33:38;;;;;;;50.1;28.2;;;;;;;1;90.7;99540;;;;
2022/12/03 14:43:38;;;;;;;50.1;28.2;;;;;;;0.8;91.5;99540;;;;
2022/12/03 14:53:38;;;;;;;50.1;28.2;;;;;;;1;91.2;99540;;;;
2022/12/03 15:03:38;;;;;;;56;28.6;;;;;;;0.8;91.7;99560;;;;
2022/12/03 15:13:38;;;;;;;56;28.6;;;;;;;1;91.4;99560;;;;
2022/12/03 15:24:38;;;;;;;56;28.6;;;;;;;1.1;91.3;99560;;;;
2022/12/03 15:34:38;;;;;;;46.7;23;;;;;;;0.7;91.5;99560;;;;
2022/12/03 15:45:38;;;;;;;46.7;23;;;;;;;0.7;92;99570;;;;
2022/12/03 15:55:38;;;;;;;46.7;23;;;;;;;0.6;92.4;99560;;;;
2022/12/03 16:06:38;;;;;;;45.2;26.6;;;;;;;0.8;92.3;99560;;;;
2022/12/03 16:16:38;;;;;;;45.2;26.6;;;;;;;0.7;92.3;99570;;;;
2022/12/03 16:26:38;;;;;;;45.2;26.6;;;;;;;0.8;92.2;99570;;;;
2022/12/03 16:37:38;;;;;;;42.3;25.1;;;;;;;0.9;92.1;99560;;;;
2022/12/03 16:48:38;;;;;;;42.3;25.1;;;;;;;0.9;92.2;99570;;;;
2022/12/03 16:59:39;;;;;;;55.4;26;;;;;;;0.9;92.3;99560;;;;
2022/12/03 17:10:38;;;;;;;55.4;26;;;;;;;0.9;92.5;99560;;;;
2022/12/03 17:20:38;;;;;;;55.4;26;;;;;;;0.9;92.4;99560;;;;
2022/12/03 17:31:38;;;;;;;62.2;34.8;;;;;;;1.2;92.4;99560;;;;
2022/12/03 17:42:38;;;;;;;62.2;34.8;;;;;;;1.2;92.3;99550;;;;
2022/12/03 17:52:38;;;;;;;62.2;34.8;;;;;;;1.1;92.5;99540;;;;
2022/12/03 18:03:38;;;;;;;56.6;28.5;;;;;;;1.3;92.2;99530;;;;
2022/12/03 18:13:38;;;;;;;56.6;28.5;;;;;;;1.2;92.4;99520;;;;
2022/12/03 18:24:38;;;;;;;56.6;28.5;;;;;;;1.2;92.5;99520;;;;
2022/12/03 18:34:38;;;;;;;51;26.7;;;;;;;1.3;92.4;99510;;;;
2022/12/03 18:44:38;;;;;;;51;26.7;;;;;;;1.4;92.3;99510;;;;
2022/12/03 18:55:38;;;;;;;51;26.7;;;;;;;1.2;92.4;99500;;;;
2022/12/03 19:05:38;;;;;;;55.8;30.2;;;;;;;1.3;92.5;99490;;;;
2022/12/03 19:16:38;;;;;;;55.8;30.2;;;;;;;1.3;92.4;99500;;;;
2022/12/03 19:26:38;;;;;;;55.8;30.2;;;;;;;1.1;92.7;99490;;;;
2022/12/03 19:36:38;;;;;;;48.1;30.6;;;;;;;1.1;92.8;99500;;;;
2022/12/03 19:46:38;;;;;;;48.1;30.6;;;;;;;1.1;92.8;99490;;;;
2022/12/03 19:57:38;;;;;;;48.1;30.6;;;;;;;1;92.9;99490;;;;
2022/12/03 20:07:38;;;;;;;46;28.1;;;;;;;1;92.7;99480;;;;
2022/12/03 20:18:39;;;;;;;46;28.1;;;;;;;1.1;92.6;99500;;;;
2022/12/03 20:29:38;;;;;;;45.2;27.6;;;;;;;1.1;92.4;99500;;;;
2022/12/03 20:39:38;;;;;;;45.2;27.6;;;;;;;1.1;92.3;99500;;;;
2022/12/03 20:49:39;;;;;;;45.2;27.6;;;;;;;1;92.2;99490;;;;
2022/12/03 21:00:40;;;;;;;45.3;27.4;;;;;;;1.1;92.2;99490;;;;
2022/12/03 21:10:43;;;;;;;45.3;27.4;;;;;;;1.2;91.9;99480;;;;
2022/12/03 21:20:38;;;;;;;45.3;27.4;;;;;;;1.1;91.9;99470;;;;
2022/12/03 21:31:38;;;;;;;40.9;24.2;;;;;;;1.1;91.9;99480;;;;
2022/12/03 21:41:38;;;;;;;40.9;24.2;;;;;;;1;91.9;99470;;;;
2022/12/03 21:52:38;;;;;;;40.9;24.2;;;;;;;1;92.1;99460;;;;
2022/12/03 22:02:38;;;;;;;45.1;23.4;;;;;;;1.1;92;99480;;;;
2022/12/03 22:13:38;;;;;;;45.1;23.4;;;;;;;1.1;92.1;99480;;;;
2022/12/03 22:23:38;;;;;;;45.1;23.4;;;;;;;1.1;92.3;99470;;;;
2022/12/03 22:34:39;;;;;;;42;22.1;;;;;;;1.1;92.3;99490;;;;
2022/12/03 22:44:38;;;;;;;42;22.1;;;;;;;1.2;92.2;99480;;;;
2022/12/03 22:55:38;;;;;;;42;22.1;;;;;;;1.1;92.3;99480;;;;
2022/12/03 23:06:38;;;;;;;37.9;21.3;;;;;;;1.1;92.4;99470;;;;
2022/12/03 23:16:38;;;;;;;37.9;21.3;;;;;;;1.1;92.7;99470;;;;
2022/12/03 23:26:38;;;;;;;37.9;21.3;;;;;;;1;92.8;99470;;;;
2022/12/03 23:37:38;;;;;;;42.9;25.1;;;;;;;1.1;92.6;99470;;;;
2022/12/03 23:47:38;;;;;;;42.9;25.1;;;;;;;1;92.6;99470;;;;
2022/12/03 23:57:38;;;;;;;42.9;25.1;;;;;;;0.9;92.9;99460;;;;
